Time,TemperatureF,DewpointF,PressureIn,WindDirection,WindDirectionDegrees,WindSpeedMPH,WindSpeedGustMPH,Humidity,HourlyPrecipIn,Conditions,Clouds,dailyrainin,SolarRadiationWatts/m^2,SoftwareType,DateUTC
2013-05-11 00:10:00,70.0,67.0,29.95,WSW,249,7.0,11.0,89,0.00,,,0.00,0,weatherlink.com 1.10,2013-05-11 05:10:00,
2013-05-11 00:25:00,70.0,66.0,29.94,WNW,293,6.0,10.0,88,0.00,,,0.00,0,weatherlink.com 1.10,2013-05-11 05:25:00,
2013-05-11 00:40:00,70.2,65.0,29.93,NNW,347,9.0,12.0,83,0.00,,,0.00,0,weatherlink.com 1.10,2013-05-11 05:40:00,
2013-05-11 00:55:00,69.7,62.0,29.92,North,354,13.0,15.0,77,0.00,,,0.00,0,weatherlink.com 1.10,2013-05-11 05:55:00,
2013-05-11 01:10:00,69.4,62.0,29.93,NNW,347,9.0,16.0,76,0.00,,,0.00,0,weatherlink.com 1.10,2013-05-11 06:10:00,
2013-05-11 01:25:00,69.0,61.0,29.93,NNW,343,10.0,16.0,75,0.00,,,0.00,0,weatherlink.com 1.10,2013-05-11 06:25:00,
2013-05-11 01:40:00,68.3,61.0,29.94,NW,326,9.0,12.0,77,0.00,,,0.00,0,weatherlink.com 1.10,2013-05-11 06:40:00,
2013-05-11 01:55:00,68.0,61.0,29.95,NW,321,10.0,11.0,77,0.00,,,0.00,0,weatherlink.com 1.10,2013-05-11 06:55:00,
2013-05-11 02:10:00,67.7,60.0,29.96,NW,321,5.0,9.0,76,0.00,,,0.00,0,weatherlink.com 1.10,2013-05-11 07:10:00,
2013-05-11 02:26:00,66.9,60.0,29.95,NNW,332,5.0,8.0,78,0.00,,,0.00,0,weatherlink.com 1.10,2013-05-11 07:26:00,
2013-05-11 02:41:00,66.4,60.0,29.95,NNW,347,4.0,6.0,79,0.00,,,0.00,0,weatherlink.com 1.10,2013-05-11 07:41:00,
2013-05-11 02:56:00,65.9,60.0,29.96,NNW,342,3.0,5.0,80,0.00,,,0.00,0,weatherlink.com 1.10,2013-05-11 07:56:00,
2013-05-11 03:11:00,65.5,60.0,29.96,NW,324,5.0,6.0,81,0.00,,,0.00,0,weatherlink.com 1.10,2013-05-11 08:11:00,
2013-05-11 03:26:00,65.0,59.0,29.98,NW,323,5.0,5.0,82,0.00,,,0.00,0,weatherlink.com 1.10,2013-05-11 08:26:00,
2013-05-11 03:41:00,64.4,59.0,29.97,NW,314,5.0,7.0,83,0.00,,,0.00,0,weatherlink.com 1.10,2013-05-11 08:41:00,
2013-05-11 03:56:00,64.4,59.0,29.98,NW,322,6.0,9.0,83,0.00,,,0.00,0,weatherlink.com 1.10,2013-05-11 08:56:00,
2013-05-11 04:11:00,65.1,59.0,29.98,NW,324,5.0,8.0,80,0.00,,,0.00,0,weatherlink.com 1.10,2013-05-11 09:11:00,
2013-05-11 04:26:00,64.7,58.0,29.98,NW,314,4.0,7.0,80,0.00,,,0.00,0,weatherlink.com 1.10,2013-05-11 09:26:00,
2013-05-11 04:41:00,64.2,58.0,29.98,NW,319,3.0,5.0,81,0.00,,,0.00,0,weatherlink.com 1.10,2013-05-11 09:41:00,
2013-05-11 04:56:00,64.0,58.0,29.98,NW,310,6.0,7.0,82,0.00,,,0.00,0,weatherlink.com 1.10,2013-05-11 09:56:00,
2013-05-11 05:11:00,64.6,59.0,29.98,NNW,337,6.0,9.0,81,0.00,,,0.00,0,weatherlink.com 1.10,2013-05-11 10:11:00,
2013-05-11 05:26:00,64.3,58.0,29.98,NW,320,8.0,10.0,81,0.00,,,0.00,0,weatherlink.com 1.10,2013-05-11 10:26:00,
2013-05-11 05:41:00,63.8,58.0,29.99,NW,308,10.0,12.0,82,0.00,,,0.00,0,weatherlink.com 1.10,2013-05-11 10:41:00,
2013-05-11 05:56:00,64.1,59.0,30.00,NW,318,6.0,12.0,82,0.00,,,0.00,0,weatherlink.com 1.10,2013-05-11 10:56:00,
2013-05-11 06:11:00,64.1,58.0,30.01,NNW,327,8.0,11.0,81,0.00,,,0.00,0,weatherlink.com 1.10,2013-05-11 11:11:00,
2013-05-11 06:26:00,63.7,58.0,30.02,NNW,339,5.0,10.0,82,0.00,,,0.00,0,weatherlink.com 1.10,2013-05-11 11:26:00,
2013-05-11 06:41:00,63.1,58.0,30.03,NNW,341,5.0,7.0,83,0.00,,,0.00,5,weatherlink.com 1.10,2013-05-11 11:41:00,
2013-05-11 06:56:00,62.6,58.0,30.03,NNW,337,7.0,7.0,84,0.00,,,0.00,12,weatherlink.com 1.10,2013-05-11 11:56:00,
2013-05-11 07:11:00,62.3,58.0,30.03,NNW,328,8.0,10.0,85,0.00,,,0.00,18,weatherlink.com 1.10,2013-05-11 12:11:00,
2013-05-11 07:26:00,62.8,58.0,30.03,NW,312,8.0,11.0,84,0.00,,,0.00,46,weatherlink.com 1.10,2013-05-11 12:26:00,
2013-05-11 07:41:00,63.5,58.0,30.03,NNW,343,6.0,10.0,83,0.00,,,0.00,132,weatherlink.com 1.10,2013-05-11 12:41:00,
2013-05-11 07:56:00,64.3,58.0,30.03,WNW,299,9.0,13.0,81,0.00,,,0.00,188,weatherlink.com 1.10,2013-05-11 12:56:00,
2013-05-11 08:11:00,65.4,58.0,30.04,NW,316,11.0,14.0,77,0.00,,,0.00,181,weatherlink.com 1.10,2013-05-11 13:11:00,
2013-05-11 08:26:00,66.2,59.0,30.04,NW,322,7.0,13.0,77,0.00,,,0.00,309,weatherlink.com 1.10,2013-05-11 13:26:00,
2013-05-11 08:42:00,67.3,58.0,30.03,NW,316,8.0,15.0,71,0.00,,,0.00,362,weatherlink.com 1.10,2013-05-11 13:42:00,
2013-05-11 08:57:00,67.6,58.0,30.03,NW,325,12.0,18.0,71,0.00,,,0.00,411,weatherlink.com 1.10,2013-05-11 13:57:00,
2013-05-11 09:12:00,68.5,56.0,30.03,NNW,339,12.0,18.0,65,0.00,,,0.00,464,weatherlink.com 1.10,2013-05-11 14:12:00,
2013-05-11 09:27:00,69.4,57.0,30.03,NNW,337,12.0,17.0,64,0.00,,,0.00,512,weatherlink.com 1.10,2013-05-11 14:27:00,
2013-05-11 09:42:00,69.9,55.0,30.04,NNW,330,16.0,17.0,59,0.00,,,0.00,564,weatherlink.com 1.10,2013-05-11 14:42:00,
2013-05-11 09:57:00,70.8,56.0,30.04,NNW,341,11.0,18.0,59,0.00,,,0.00,610,weatherlink.com 1.10,2013-05-11 14:57:00,
2013-05-11 10:12:00,71.6,54.0,30.04,North,359,15.0,19.0,54,0.00,,,0.00,654,weatherlink.com 1.10,2013-05-11 15:12:00,
2013-05-11 10:27:00,71.9,54.0,30.04,NNW,330,16.0,18.0,54,0.00,,,0.00,694,weatherlink.com 1.10,2013-05-11 15:27:00,
2013-05-11 10:42:00,72.2,53.0,30.04,North,9,11.0,19.0,52,0.00,,,0.00,733,weatherlink.com 1.10,2013-05-11 15:42:00,
2013-05-11 10:57:00,72.2,54.0,30.04,NNE,15,11.0,17.0,53,0.00,,,0.00,770,weatherlink.com 1.10,2013-05-11 15:57:00,
2013-05-11 11:12:00,73.0,53.0,30.04,North,8,12.0,20.0,49,0.00,,,0.00,807,weatherlink.com 1.10,2013-05-11 16:12:00,
2013-05-11 11:27:00,73.5,55.0,30.05,NNW,331,16.0,19.0,52,0.00,,,0.00,828,weatherlink.com 1.10,2013-05-11 16:27:00,
2013-05-11 11:42:00,73.0,51.0,30.05,NNW,348,15.0,22.0,47,0.00,,,0.00,868,weatherlink.com 1.10,2013-05-11 16:42:00,
2013-05-11 11:57:00,73.4,51.0,30.05,NNW,332,14.0,24.0,46,0.00,,,0.00,70,weatherlink.com 1.10,2013-05-11 16:57:00,
2013-05-11 12:12:00,73.9,52.0,30.05,NNW,335,19.0,21.0,47,0.00,,,0.00,74,weatherlink.com 1.10,2013-05-11 17:12:00,
2013-05-11 12:27:00,74.1,53.0,30.06,North,359,16.0,21.0,48,0.00,,,0.00,916,weatherlink.com 1.10,2013-05-11 17:27:00,
2013-05-11 12:43:00,74.5,54.0,30.06,NNW,345,11.0,20.0,49,0.00,,,0.00,974,weatherlink.com 1.10,2013-05-11 17:43:00,
2013-05-11 12:58:00,74.7,55.0,30.05,NNW,332,7.0,18.0,50,0.00,,,0.00,1056,weatherlink.com 1.10,2013-05-11 17:58:00,
2013-05-11 13:13:00,75.1,52.0,30.05,North,350,10.0,20.0,45,0.00,,,0.00,970,weatherlink.com 1.10,2013-05-11 18:13:00,
2013-05-11 13:28:00,75.7,52.0,30.05,NNW,344,15.0,16.0,44,0.00,,,0.00,974,weatherlink.com 1.10,2013-05-11 18:28:00,
2013-05-11 13:43:00,75.9,54.0,30.04,North,4,10.0,16.0,46,0.00,,,0.00,960,weatherlink.com 1.10,2013-05-11 18:43:00,
2013-05-11 13:58:00,76.1,54.0,30.05,NW,306,13.0,19.0,46,0.00,,,0.00,933,weatherlink.com 1.10,2013-05-11 18:58:00,
2013-05-11 14:13:00,76.9,51.0,30.05,NNW,337,15.0,21.0,40,0.00,,,0.00,981,weatherlink.com 1.10,2013-05-11 19:13:00,
2013-05-11 14:28:00,76.6,52.0,30.04,NNW,328,15.0,22.0,42,0.00,,,0.00,946,weatherlink.com 1.10,2013-05-11 19:28:00,
2013-05-11 14:43:00,76.3,51.0,30.04,NNW,338,7.0,19.0,42,0.00,,,0.00,919,weatherlink.com 1.10,2013-05-11 19:43:00,
2013-05-11 14:58:00,76.7,51.0,30.04,NNW,327,8.0,22.0,41,0.00,,,0.00,902,weatherlink.com 1.10,2013-05-11 19:58:00,
2013-05-11 15:13:00,77.8,52.0,30.03,NNE,23,11.0,20.0,40,0.00,,,0.00,874,weatherlink.com 1.10,2013-05-11 20:13:00,
2013-05-11 15:28:00,77.2,49.0,30.02,North,354,13.0,20.0,37,0.00,,,0.00,849,weatherlink.com 1.10,2013-05-11 20:28:00,
2013-05-11 15:43:00,77.4,49.0,30.02,NNW,339,12.0,19.0,37,0.00,,,0.00,817,weatherlink.com 1.10,2013-05-11 20:43:00,
2013-05-11 15:58:00,77.9,50.0,30.01,NW,321,17.0,18.0,38,0.00,,,0.00,784,weatherlink.com 1.10,2013-05-11 20:58:00,
2013-05-11 16:13:00,78.3,48.0,30.01,NW,308,13.0,19.0,35,0.00,,,0.00,744,weatherlink.com 1.10,2013-05-11 21:13:00,
2013-05-11 16:28:00,78.6,49.0,30.01,NNW,328,10.0,19.0,35,0.00,,,0.00,707,weatherlink.com 1.10,2013-05-11 21:28:00,
2013-05-11 16:43:00,78.5,49.0,30.01,North,354,10.0,17.0,36,0.00,,,0.00,661,weatherlink.com 1.10,2013-05-11 21:43:00,
2013-05-11 16:58:00,78.7,50.0,30.01,NNW,334,9.0,21.0,36,0.00,,,0.00,617,weatherlink.com 1.10,2013-05-11 21:58:00,
2013-05-11 17:13:00,79.0,48.0,30.01,NNW,334,17.0,21.0,34,0.00,,,0.00,577,weatherlink.com 1.10,2013-05-11 22:13:00,
2013-05-11 17:28:00,79.1,49.0,30.00,NNW,335,9.0,17.0,35,0.00,,,0.00,526,weatherlink.com 1.10,2013-05-11 22:28:00,
2013-05-11 17:43:00,78.9,49.0,30.00,NNW,346,14.0,20.0,35,0.00,,,0.00,473,weatherlink.com 1.10,2013-05-11 22:43:00,
2013-05-11 17:58:00,78.8,50.0,30.00,NNW,327,15.0,19.0,36,0.00,,,0.00,422,weatherlink.com 1.10,2013-05-11 22:58:00,
2013-05-11 18:13:00,78.9,50.0,30.00,North,359,13.0,15.0,37,0.00,,,0.00,369,weatherlink.com 1.10,2013-05-11 23:13:00,
2013-05-11 18:28:00,78.6,50.0,30.00,North,4,13.0,16.0,37,0.00,,,0.00,316,weatherlink.com 1.10,2013-05-11 23:28:00,
2013-05-11 18:43:00,78.4,50.0,30.00,North,359,8.0,14.0,37,0.00,,,0.00,262,weatherlink.com 1.10,2013-05-11 23:43:00,
2013-05-11 18:58:00,78.0,50.0,30.00,NNE,21,9.0,16.0,38,0.00,,,0.00,211,weatherlink.com 1.10,2013-05-11 23:58:00,
2013-05-11 19:13:00,77.6,51.0,30.00,NNW,332,9.0,12.0,39,0.00,,,0.00,151,weatherlink.com 1.10,2013-05-12 00:13:00,
2013-05-11 19:28:00,77.0,51.0,30.01,NNW,336,6.0,9.0,40,0.00,,,0.00,91,weatherlink.com 1.10,2013-05-12 00:28:00,
2013-05-11 19:43:00,75.8,52.0,30.01,North,359,5.0,6.0,43,0.00,,,0.00,53,weatherlink.com 1.10,2013-05-12 00:43:00,
2013-05-11 19:58:00,74.4,52.0,30.01,North,354,4.0,5.0,46,0.00,,,0.00,23,weatherlink.com 1.10,2013-05-12 00:58:00,
2013-05-11 20:13:00,73.3,52.0,30.02,North,354,3.0,4.0,48,0.00,,,0.00,5,weatherlink.com 1.10,2013-05-12 01:13:00,
2013-05-11 20:28:00,72.5,53.0,30.03,North,354,4.0,4.0,50,0.00,,,0.00,0,weatherlink.com 1.10,2013-05-12 01:28:00,
2013-05-11 20:43:00,71.3,53.0,30.03,North,354,3.0,4.0,53,0.00,,,0.00,0,weatherlink.com 1.10,2013-05-12 01:43:00,
2013-05-11 20:58:00,70.5,53.0,30.04,North,354,3.0,4.0,54,0.00,,,0.00,0,weatherlink.com 1.10,2013-05-12 01:58:00,
2013-05-11 21:13:00,69.9,53.0,30.05,North,354,3.0,4.0,56,0.00,,,0.00,0,weatherlink.com 1.10,2013-05-12 02:13:00,
2013-05-11 21:28:00,69.5,53.0,30.05,North,354,2.0,4.0,56,0.00,,,0.00,0,weatherlink.com 1.10,2013-05-12 02:28:00,
2013-05-11 21:43:00,69.0,52.0,30.06,North,354,2.0,3.0,56,0.00,,,0.00,0,weatherlink.com 1.10,2013-05-12 02:43:00,
2013-05-11 21:58:00,68.7,53.0,30.06,North,354,3.0,4.0,57,0.00,,,0.00,0,weatherlink.com 1.10,2013-05-12 02:58:00,
2013-05-11 22:13:00,68.2,52.0,30.06,North,354,2.0,4.0,57,0.00,,,0.00,0,weatherlink.com 1.10,2013-05-12 03:13:00,
2013-05-11 22:28:00,68.0,52.0,30.07,North,354,2.0,4.0,57,0.00,,,0.00,0,weatherlink.com 1.10,2013-05-12 03:28:00,
2013-05-11 22:43:00,67.7,52.0,30.08,North,354,1.0,3.0,57,0.00,,,0.00,0,weatherlink.com 1.10,2013-05-12 03:43:00,
2013-05-11 22:58:00,66.2,53.0,30.08,North,354,0.0,2.0,63,0.00,,,0.00,0,weatherlink.com 1.10,2013-05-12 03:58:00,
2013-05-11 23:13:00,64.0,53.0,30.08,North,354,0.0,1.0,68,0.00,,,0.00,0,weatherlink.com 1.10,2013-05-12 04:13:00,
2013-05-11 23:28:00,64.2,53.0,30.08,North,354,2.0,2.0,67,0.00,,,0.00,0,weatherlink.com 1.10,2013-05-12 04:28:00,
2013-05-11 23:43:00,64.2,54.0,30.08,North,354,0.0,3.0,69,0.00,,,0.00,0,weatherlink.com 1.10,2013-05-12 04:43:00,
2013-05-11 23:58:00,63.5,54.0,30.08,North,354,0.0,1.0,72,0.00,,,0.00,0,weatherlink.com 1.10,2013-05-12 04:58:00,